Impacts TAF Board INFO
FOR SITUATIONAL AWARENESS. NOT TO BE USED FOR FLIGHT PLANNING PURPOSES.
IDs:

KMDW - Chicago/Midway Intl, IL, US

Issued at 0301 UTC 17 Jul 2018
Updated at 0357 UTC 17 Jul 2018
Potential Impact None Slight Moderate High
Time0353Z 17/04Z 17/05Z 17/06Z 17/07Z 17/08Z 17/09Z 17/10Z 17/11Z 17/12Z 17/13Z 17/14Z 17/15Z 17/16Z>>
Type OBS PRVL PRVL PRVL PRVL PRVL PRVL PRVL PRVL PRVL PRVL PRVL PRVL PRVL
VIS 9 >6 >6 >6 >6 >6 >6 >6 >6 >6 >6 >6 >6 >6
CIG -- -- -- -- -- -- -- -- -- -- -- -- -- --
Cover CLR SKC SKC SKC SKC SKC SKC SKC SKC SKC SKC FEW FEW FEW
FltCat VFR VFR VFR VFR VFR VFR VFR VFR VFR VFR VFR VFR VFR VFR
WX -- -- -- -- -- -- -- -- -- -- -- -- -- --
WDir 360 40 340 340 340 340 340 340 340 340 340 10 10 10
WSpd 4 5 5 5 5 5 5 5 5 5 5 8 8 8
WGst -- -- -- -- -- -- -- -- -- -- -- -- -- --

Raw TAF
KMDW 170301Z 1703/1806 04005KT P6SM SKC
  FM170500 34005KT P6SM SKC
  FM171400 01008KT P6SM FEW250
  FM171700 04008KT P6SM FEW250
  FM180200 VRB03KT P6SM FEW250


Raw METAR
KMDW 170353Z 36004KT 9SM CLR 26/22 A2998 RMK AO2 SLP140 T02560217 $
KMDW 170253Z 03007KT 10SM CLR 26/22 A2997 RMK AO2 SLP137 T02560222 53023 $
KMDW 170153Z 04004KT 10SM FEW037 FEW150 27/23 A2994 RMK AO2 SLP127 T02670228 $
KMDW 170053Z 06007KT 10SM SCT037 SCT150 28/22 A2992 RMK AO2 SLP119 T02780222 $

METAR Board
Radar Display
Forecast Discussion

FOR SITUATIONAL AWARENESS. NOT TO BE USED FOR FLIGHT PLANNING PURPOSES.